Time;durP1;ratioP1;P1;durP2;ratioP2;P2;SDS_P1;SDS_P2;PMS_P1;PMS_P2;Temp;Humidity;BMP_temperature;BMP_pressure;BME280_temperature;BME280_humidity;BME280_pressure;Samples;Min_cycle;Max_cycle;Signal;HPM_P1;HPM_P2
2022/07/28 00:00:10;;;;;;;5.30;2.10;;;;;;;15.92;51.09;100271.70;107892;1268;112395;-67
2022/07/28 00:03:03;;;;;;;4.70;2.20;;;;;;;15.90;51.17;100269.52;107943;1267;110227;-67
2022/07/28 00:05:35;;;;;;;5.60;2.40;;;;;;;15.89;51.30;100269.11;107950;1266;108811;-66
2022/07/28 00:08:09;;;;;;;4.30;2.30;;;;;;;15.87;51.32;100265.86;106987;1266;138477;-66
2022/07/28 00:10:41;;;;;;;4.90;2.10;;;;;;;15.85;51.48;100263.16;106513;1267;315919;-66
2022/07/28 00:13:14;;;;;;;8.10;2.30;;;;;;;15.84;51.63;100265.66;107845;1266;138468;-67
2022/07/28 00:15:46;;;;;;;5.00;2.20;;;;;;;15.85;51.70;100268.10;107152;1267;107867;-67
2022/07/28 00:18:18;;;;;;;6.10;2.20;;;;;;;15.84;51.59;100277.94;107823;1266;138567;-66
2022/07/28 00:20:51;;;;;;;11.70;7.30;;;;;;;15.82;51.65;100277.89;107827;1268;97800;-66
2022/07/28 00:23:24;;;;;;;6.40;2.40;;;;;;;15.80;51.74;100275.54;106700;1268;97855;-67
2022/07/28 00:26:11;;;;;;;5.50;2.30;;;;;;;15.78;51.84;100271.58;107747;1267;138174;-67
2022/07/28 00:28:43;;;;;;;5.40;2.40;;;;;;;15.75;51.87;100278.05;107911;1268;108815;-67
2022/07/28 00:31:15;;;;;;;5.50;2.00;;;;;;;15.72;52.03;100272.27;107817;1268;137826;-67
2022/07/28 00:33:48;;;;;;;4.70;2.10;;;;;;;15.70;52.17;100278.65;107506;1268;97871;-67
2022/07/28 00:36:20;;;;;;;7.00;2.20;;;;;;;15.70;52.32;100278.67;107807;1266;138363;-66
2022/07/28 00:38:57;;;;;;;4.50;2.10;;;;;;;15.67;52.31;100282.01;107928;1267;112360;-67
2022/07/28 00:41:30;;;;;;;4.30;2.00;;;;;;;15.64;52.39;100280.58;107839;1269;108953;-67
2022/07/28 00:44:05;;;;;;;5.10;2.20;;;;;;;15.62;52.72;100281.55;107317;1267;138405;-66
2022/07/28 00:46:38;;;;;;;6.20;2.40;;;;;;;15.59;52.67;100280.63;107950;1266;96142;-67
2022/07/28 00:49:11;;;;;;;4.80;2.60;;;;;;;15.55;52.85;100281.35;107219;1267;137660;-67
2022/07/28 00:51:44;;;;;;;3.70;2.20;;;;;;;15.50;52.90;100283.72;106531;1266;112231;-66
2022/07/28 00:54:16;;;;;;;4.60;2.40;;;;;;;15.46;53.01;100282.04;107832;1265;139341;-66
2022/07/28 00:56:48;;;;;;;7.00;2.50;;;;;;;15.40;53.24;100281.59;107934;1266;108711;-67
2022/07/28 00:59:20;;;;;;;6.80;2.40;;;;;;;15.35;53.35;100285.37;107887;1268;95966;-67
2022/07/28 01:01:53;;;;;;;5.00;2.30;;;;;;;15.30;53.50;100286.17;107850;1266;137675;-67
2022/07/28 01:04:27;;;;;;;5.30;2.30;;;;;;;15.25;53.67;100284.98;107963;1266;111381;-67
2022/07/28 01:07:15;;;;;;;5.10;2.40;;;;;;;15.23;53.65;100284.95;107844;1266;138085;-67
2022/07/28 01:09:56;;;;;;;11.80;2.90;;;;;;;15.19;53.84;100290.20;107914;1268;108918;-66
2022/07/28 01:12:42;;;;;;;4.40;2.20;;;;;;;15.14;53.73;100288.91;107820;1267;139496;-67
2022/07/28 01:15:20;;;;;;;7.20;2.30;;;;;;;15.11;54.23;100286.27;107967;1267;96968;-67
2022/07/28 01:17:59;;;;;;;5.30;2.20;;;;;;;15.08;54.26;100288.31;107922;1266;111565;-67
2022/07/28 01:20:35;;;;;;;4.10;2.40;;;;;;;15.04;54.27;100295.52;107845;1266;140831;-67
2022/07/28 01:23:41;;;;;;;10.80;2.60;;;;;;;15.00;54.56;100294.00;107937;1266;108806;-67
2022/07/28 01:26:34;;;;;;;5.60;2.30;;;;;;;14.94;54.69;100294.30;106795;1267;139178;-66
2022/07/28 01:29:23;;;;;;;9.20;2.60;;;;;;;14.89;54.76;100295.77;107957;1266;95975;-66
2022/07/28 01:32:03;;;;;;;7.20;2.80;;;;;;;14.83;54.85;100292.72;106440;1267;138371;-67
2022/07/28 01:34:50;;;;;;;6.90;2.50;;;;;;;14.79;55.11;100294.14;107714;1267;108994;-66
2022/07/28 01:37:25;;;;;;;;;;;;;;;14.76;55.28;100289.90;107469;1267;139461;-67
2022/07/28 01:40:00;;;;;;;8.10;3.40;;;;;;;14.72;55.26;100289.91;106655;1267;97868;-67
2022/07/28 01:42:37;;;;;;;6.10;2.30;;;;;;;14.68;55.42;100288.19;106988;1267;138514;-66
2022/07/28 01:45:13;;;;;;;8.20;2.70;;;;;;;14.67;55.52;100286.15;106717;1267;112153;-68
2022/07/28 01:47:48;;;;;;;7.10;2.50;;;;;;;14.69;55.46;100285.36;107582;1266;109107;-67
2022/07/28 01:50:22;;;;;;;;;;;;;;;14.69;55.60;100285.69;106701;1266;138461;-66
2022/07/28 01:52:56;;;;;;;7.90;2.60;;;;;;;14.68;55.68;100282.94;107933;1266;95988;-67
2022/07/28 01:55:31;;;;;;;9.10;2.60;;;;;;;14.67;55.79;100285.96;107823;1267;138409;-67
2022/07/28 01:58:04;;;;;;;5.70;2.70;;;;;;;14.67;55.84;100287.21;107916;1267;111382;-67
2022/07/28 02:00:38;;;;;;;6.70;2.80;;;;;;;14.66;55.90;100285.52;107786;1268;138678;-66
2022/07/28 02:03:12;;;;;;;7.20;2.80;;;;;;;14.65;56.07;100290.42;107963;1266;107263;-67
2022/07/28 02:05:46;;;;;;;8.90;2.90;;;;;;;14.65;56.12;100290.09;107940;1266;96211;-67
2022/07/28 02:08:20;;;;;;;9.00;2.70;;;;;;;14.63;56.09;100292.13;107816;1267;139030;-67
2022/07/28 02:13:47;;;;;;;6.20;3.40;;;;;;;14.57;56.12;100290.15;107858;1267;139311;-67
2022/07/28 02:16:24;;;;;;;9.20;3.40;;;;;;;14.52;56.14;100295.42;107929;1266;107787;-67
2022/07/28 02:18:59;;;;;;;6.10;3.40;;;;;;;14.50;56.46;100292.73;106944;1266;138729;-66
2022/07/28 02:21:34;;;;;;;7.60;3.10;;;;;;;14.49;56.48;100294.88;106432;1267;97834;-66
2022/07/28 02:24:11;;;;;;;5.40;2.90;;;;;;;14.48;56.61;100292.29;107838;1267;111054;-66
2022/07/28 02:26:49;;;;;;;6.00;2.80;;;;;;;14.45;56.59;100292.29;107681;1267;108983;-66
2022/07/28 02:29:25;;;;;;;7.30;3.40;;;;;;;14.43;56.70;100295.52;107937;1266;109325;-66
2022/07/28 02:32:22;;;;;;;9.70;5.40;;;;;;;14.38;56.66;100298.54;107810;1266;138684;-66
2022/07/28 02:35:06;;;;;;;8.50;4.60;;;;;;;14.34;56.69;100303.41;107737;1267;96470;-66
2022/07/28 02:37:49;;;;;;;6.90;4.00;;;;;;;14.30;56.73;100297.18;107866;1266;138748;-66
2022/07/28 02:40:23;;;;;;;8.10;2.90;;;;;;;14.26;56.94;100302.77;107936;1266;108714;-66
2022/07/28 02:42:58;;;;;;;11.40;7.10;;;;;;;14.24;57.15;100305.32;106901;1267;138903;-67
2022/07/28 02:45:33;;;;;;;9.20;3.30;;;;;;;14.22;57.01;100302.45;107912;1266;96016;-67
2022/07/28 02:48:11;;;;;;;5.40;3.10;;;;;;;14.18;57.30;100298.25;107940;1266;95945;-66
2022/07/28 02:50:45;;;;;;;8.40;3.80;;;;;;;14.14;57.28;100300.33;107913;1268;112549;-66
2022/07/28 02:53:18;;;;;;;8.30;3.50;;;;;;;14.11;57.45;100303.45;107468;1266;108765;-67
2022/07/28 02:55:52;;;;;;;8.00;2.90;;;;;;;14.09;57.59;100308.92;106432;1267;138737;-66
2022/07/28 02:58:28;;;;;;;6.30;3.40;;;;;;;14.09;57.71;100312.11;107755;1266;96363;-67
2022/07/28 03:01:02;;;;;;;8.90;3.40;;;;;;;14.08;57.58;100314.96;106697;1267;138534;-66
2022/07/28 03:03:36;;;;;;;6.80;3.40;;;;;;;14.04;57.52;100323.73;107925;1267;111142;-66
2022/07/28 03:06:15;;;;;;;11.80;3.30;;;;;;;14.01;57.80;100326.50;107838;1267;139481;-66
2022/07/28 03:08:49;;;;;;;7.60;3.60;;;;;;;13.99;57.98;100327.75;107913;1267;108714;-67
2022/07/28 03:11:21;;;;;;;6.00;3.40;;;;;;;13.99;58.10;100325.85;107527;1267;96474;-67
2022/07/28 03:13:54;;;;;;;10.90;4.00;;;;;;;13.98;58.12;100330.26;106884;1266;138380;-66
2022/07/28 03:16:26;;;;;;;7.00;3.90;;;;;;;13.98;58.30;100330.29;107054;1267;112070;-66
2022/07/28 03:18:59;;;;;;;11.10;4.70;;;;;;;13.96;58.04;100327.41;107854;1264;139723;-67
2022/07/28 03:21:31;;;;;;;7.90;4.50;;;;;;;13.93;57.96;100330.67;107842;1267;108753;-66
2022/07/28 03:24:04;;;;;;;8.10;4.00;;;;;;;13.93;58.15;100328.24;107135;1266;97851;-66
2022/07/28 03:26:41;;;;;;;7.30;4.00;;;;;;;13.94;58.20;100330.14;106584;1269;100134;-67
2022/07/28 03:29:16;;;;;;;8.30;3.70;;;;;;;13.94;58.24;100332.73;107233;1267;111463;-66
2022/07/28 03:31:48;;;;;;;8.00;3.70;;;;;;;13.94;58.25;100336.39;106851;1267;142554;-66
2022/07/28 03:34:21;;;;;;;9.30;4.50;;;;;;;13.94;58.30;100340.42;107904;1266;109340;-67
2022/07/28 03:36:59;;;;;;;10.50;5.30;;;;;;;13.94;58.25;100342.00;106872;1266;138867;-65
2022/07/28 03:39:37;;;;;;;10.30;4.60;;;;;;;13.95;58.24;100341.94;107942;1266;95981;-66
2022/07/28 03:42:11;;;;;;;8.60;5.10;;;;;;;13.98;58.34;100345.68;107108;1266;112568;-67
2022/07/28 03:44:45;;;;;;;8.60;5.50;;;;;;;13.99;58.33;100347.70;106476;1267;105898;-66
2022/07/28 03:47:23;;;;;;;12.50;5.20;;;;;;;14.02;58.40;100349.35;107936;1266;108649;-67
2022/07/28 03:49:55;;;;;;;8.30;4.50;;;;;;;14.05;58.38;100355.48;106724;1267;138723;-66
2022/07/28 03:52:27;;;;;;;7.20;4.20;;;;;;;14.08;58.37;100356.92;106444;1267;97908;-67
2022/07/28 03:55:00;;;;;;;12.20;4.40;;;;;;;14.11;58.45;100360.30;106445;1267;138406;-66
2022/07/28 03:57:32;;;;;;;8.80;4.10;;;;;;;14.14;58.44;100362.75;107931;1267;108860;-66
2022/07/28 04:00:06;;;;;;;7.90;4.80;;;;;;;14.17;58.41;100361.94;107341;1266;108878;-67
2022/07/28 04:02:44;;;;;;;10.80;4.80;;;;;;;14.18;58.40;100366.63;106478;1268;98412;-67
2022/07/28 04:05:18;;;;;;;13.80;4.40;;;;;;;14.21;58.40;100368.95;107579;1267;95780;-67
2022/07/28 04:07:50;;;;;;;9.50;4.60;;;;;;;14.24;58.35;100370.22;107408;1266;139146;-67
2022/07/28 04:10:23;;;;;;;11.10;5.10;;;;;;;14.27;58.30;100371.84;107911;1265;108790;-67
2022/07/28 04:12:57;;;;;;;8.50;5.30;;;;;;;14.28;58.22;100370.86;106472;1266;139089;-67
2022/07/28 04:15:31;;;;;;;8.00;5.10;;;;;;;14.32;58.21;100370.87;106669;1267;97831;-67
2022/07/28 04:18:03;;;;;;;12.00;5.10;;;;;;;14.35;58.19;100371.08;107944;1267;96343;-67
2022/07/28 04:20:36;;;;;;;9.00;4.90;;;;;;;14.38;58.17;100373.75;107852;1266;140203;-67
2022/07/28 04:23:08;;;;;;;11.20;5.30;;;;;;;14.42;58.04;100379.00;106992;1266;109007;-67
2022/07/28 04:25:41;;;;;;;12.40;4.90;;;;;;;14.47;57.86;100381.05;107197;1266;139047;-67
2022/07/28 04:28:14;;;;;;;12.30;5.20;;;;;;;14.54;57.91;100378.11;107919;1266;96215;-67
2022/07/28 04:30:46;;;;;;;11.60;5.80;;;;;;;14.62;57.87;100380.20;106373;1267;138929;-67
2022/07/28 04:33:19;;;;;;;10.80;5.70;;;;;;;14.68;57.72;100382.86;106462;1267;112686;-67
2022/07/28 04:35:53;;;;;;;13.10;6.00;;;;;;;14.72;57.65;100386.00;106489;1267;108916;-67
2022/07/28 04:38:25;;;;;;;9.70;5.70;;;;;;;14.77;57.48;100387.20;107836;1266;139747;-67
2022/07/28 04:40:58;;;;;;;9.50;5.50;;;;;;;14.79;57.36;100386.03;107102;1267;97921;-67
2022/07/28 04:43:30;;;;;;;11.80;5.80;;;;;;;14.83;57.28;100382.33;107155;1267;138377;-67
2022/07/28 04:46:03;;;;;;;11.10;5.40;;;;;;;14.90;57.41;100380.95;107837;1267;112697;-67
2022/07/28 04:48:36;;;;;;;7.80;5.50;;;;;;;15.00;57.30;100379.95;106716;1266;138937;-67
2022/07/28 04:51:08;;;;;;;10.10;5.30;;;;;;;15.09;57.25;100380.58;107916;1266;107814;-67
2022/07/28 04:53:40;;;;;;;12.20;5.50;;;;;;;15.18;57.29;100377.14;107927;1266;96314;-67
2022/07/28 04:56:13;;;;;;;11.70;5.40;;;;;;;15.30;57.12;100378.65;107862;1266;138626;-67
2022/07/28 04:58:46;;;;;;;9.40;5.20;;;;;;;15.42;57.19;100375.41;107342;1267;111363;-67
2022/07/28 05:01:20;;;;;;;10.10;5.70;;;;;;;15.53;57.00;100375.06;106735;1266;141069;-67
2022/07/28 05:03:53;;;;;;;8.70;4.70;;;;;;;15.67;56.91;100375.91;107935;1266;108561;-67
2022/07/28 05:06:25;;;;;;;10.70;5.80;;;;;;;15.86;56.93;100375.69;107820;1267;139447;-67
2022/07/28 05:08:57;;;;;;;10.90;5.30;;;;;;;16.09;56.80;100378.84;107920;1267;96010;-67
2022/07/28 05:11:30;;;;;;;9.70;5.90;;;;;;;16.35;56.63;100380.62;107537;1267;110994;-67
2022/07/28 05:14:03;;;;;;;8.90;4.70;;;;;;;16.59;56.38;100380.70;107821;1266;138491;-67
2022/07/28 05:16:35;;;;;;;11.20;5.50;;;;;;;16.86;56.06;100381.71;106987;1267;108359;-68
2022/07/28 05:19:09;;;;;;;9.20;5.20;;;;;;;17.13;55.64;100380.17;106399;1267;138152;-68
2022/07/28 05:21:42;;;;;;;7.50;4.90;;;;;;;17.41;55.27;100379.77;107911;1266;96105;-67
2022/07/28 05:24:14;;;;;;;12.00;5.00;;;;;;;17.74;55.07;100380.84;107811;1267;138160;-66
2022/07/28 05:26:47;;;;;;;14.70;5.00;;;;;;;18.08;54.42;100387.05;107971;1266;108881;-67
2022/07/28 05:29:19;;;;;;;12.10;4.40;;;;;;;18.70;54.08;100387.94;106424;1267;109747;-67
2022/07/28 05:31:52;;;;;;;7.70;4.00;;;;;;;20.18;53.17;100383.52;106688;1267;138246;-67
2022/07/28 05:34:24;;;;;;;9.10;3.90;;;;;;;22.30;50.91;100381.92;107620;1267;97928;-67
2022/07/28 05:36:57;;;;;;;8.80;3.50;;;;;;;24.44;47.42;100374.18;106763;1267;138530;-67
2022/07/28 05:39:31;;;;;;;8.90;4.00;;;;;;;26.32;44.33;100377.39;106486;1267;108420;-67
2022/07/28 05:42:04;;;;;;;12.00;3.80;;;;;;;28.07;41.82;100366.70;107950;1267;109345;-68
2022/07/28 05:44:36;;;;;;;10.70;3.30;;;;;;;29.55;39.06;100366.05;107813;1267;137941;-68
2022/07/28 05:47:10;;;;;;;7.00;3.20;;;;;;;30.80;36.92;100368.67;107927;1267;96122;-68
2022/07/28 05:49:42;;;;;;;7.90;3.40;;;;;;;31.86;35.14;100362.91;107794;1267;138611;-68
2022/07/28 05:52:14;;;;;;;8.00;3.50;;;;;;;32.89;33.96;100364.24;107139;1267;108770;-68
2022/07/28 05:54:46;;;;;;;7.10;2.90;;;;;;;33.86;32.24;100366.27;106453;1267;139334;-67
2022/07/28 05:57:19;;;;;;;6.30;2.70;;;;;;;34.67;30.99;100370.36;107917;1266;96100;-67
2022/07/28 05:59:51;;;;;;;6.10;2.60;;;;;;;35.21;29.59;100373.83;107981;1267;95963;-67
2022/07/28 06:02:24;;;;;;;6.90;2.90;;;;;;;35.89;28.68;100369.55;107793;1266;138774;-66
2022/07/28 06:04:56;;;;;;;10.40;2.90;;;;;;;36.44;27.68;100369.03;107977;1267;108872;-66
2022/07/28 06:07:29;;;;;;;6.50;2.40;;;;;;;36.94;26.62;100370.48;107811;1267;139317;-69
2022/07/28 06:10:17;;;;;;;4.60;2.20;;;;;;;37.01;25.11;100370.13;106528;1267;97924;-66
2022/07/28 06:12:51;;;;;;;6.40;2.30;;;;;;;36.19;24.73;100370.77;106657;1267;137899;-67
2022/07/28 06:15:24;;;;;;;9.60;2.50;;;;;;;35.87;24.93;100374.27;107965;1265;113806;-67
2022/07/28 06:17:57;;;;;;;3.80;2.00;;;;;;;35.62;24.76;100372.63;107890;1266;108759;-66
2022/07/28 06:20:29;;;;;;;5.60;1.90;;;;;;;36.00;24.63;100376.10;107718;1266;137807;-66
2022/07/28 06:23:01;;;;;;;5.60;2.10;;;;;;;36.59;24.48;100381.42;107927;1267;97096;-66
2022/07/28 06:25:34;;;;;;;8.50;2.20;;;;;;;37.38;23.89;100380.45;107784;1266;138797;-66
2022/07/28 06:28:06;;;;;;;3.30;2.00;;;;;;;38.24;23.45;100378.54;107928;1267;111451;-66
2022/07/28 06:30:39;;;;;;;7.10;2.10;;;;;;;38.78;22.54;100382.94;107835;1266;137961;-67
2022/07/28 06:33:12;;;;;;;5.90;2.00;;;;;;;39.41;22.03;100378.83;107390;1267;108970;-66
2022/07/28 06:35:48;;;;;;;2.50;1.60;;;;;;;39.85;20.91;100378.67;106771;1267;97934;-66
2022/07/28 06:38:22;;;;;;;8.00;1.80;;;;;;;40.01;20.44;100381.34;106314;1267;137835;-66
2022/07/28 06:40:56;;;;;;;6.30;1.70;;;;;;;40.17;20.47;100382.41;106414;1267;113032;-66
2022/07/28 06:43:29;;;;;;;5.70;2.00;;;;;;;40.53;19.87;100381.81;106322;1267;137834;-65
2022/07/28 06:46:03;;;;;;;7.20;1.80;;;;;;;40.82;19.70;100384.04;106516;1267;109251;-66
2022/07/28 06:48:38;;;;;;;4.50;1.80;;;;;;;41.18;19.33;100387.95;106329;1267;138482;-66
2022/07/28 06:51:10;;;;;;;3.90;1.60;;;;;;;41.26;18.87;100385.65;107991;1267;97097;-67
2022/07/28 06:53:43;;;;;;;7.70;1.50;;;;;;;41.49;18.26;100388.16;106849;1267;111354;-66
2022/07/28 06:56:18;;;;;;;3.50;1.40;;;;;;;41.30;17.81;100386.91;107851;1267;138617;-66
2022/07/28 06:58:52;;;;;;;3.60;1.40;;;;;;;41.16;18.06;100389.30;107159;1267;108697;-66
2022/07/28 07:01:24;;;;;;;4.20;1.30;;;;;;;41.21;17.78;100390.70;106308;1267;139276;-65
2022/07/28 07:03:57;;;;;;;3.70;1.60;;;;;;;41.19;17.42;100391.70;106402;1267;97822;-68
2022/07/28 07:06:30;;;;;;;7.40;1.60;;;;;;;41.23;17.41;100394.22;106411;1267;137910;-66
2022/07/28 07:09:03;;;;;;;4.40;1.30;;;;;;;41.14;17.00;100392.33;107748;1266;108286;-66
2022/07/28 07:11:36;;;;;;;7.30;1.60;;;;;;;40.84;17.14;100391.35;106461;1267;108828;-67
2022/07/28 07:14:08;;;;;;;3.70;1.50;;;;;;;40.72;16.86;100392.05;107788;1267;138505;-67
2022/07/28 07:16:41;;;;;;;6.90;1.90;;;;;;;40.93;17.12;100399.25;107935;1267;96173;-67
2022/07/28 07:19:14;;;;;;;4.20;1.50;;;;;;;41.22;16.88;100393.23;107828;1267;139500;-67
2022/07/28 07:21:47;;;;;;;5.90;1.70;;;;;;;40.98;16.95;100398.63;106908;1267;109011;-67
2022/07/28 07:24:19;;;;;;;7.40;1.80;;;;;;;40.69;16.87;100397.36;107769;1267;138955;-66
2022/07/28 07:26:54;;;;;;;5.10;2.00;;;;;;;40.46;17.00;100398.52;107801;1267;97855;-67
2022/07/28 07:29:26;;;;;;;5.80;1.70;;;;;;;40.49;17.23;100397.05;107891;1267;95703;-71
2022/07/28 07:32:02;;;;;;;3.00;1.30;;;;;;;40.62;17.32;100402.19;107324;1267;138415;-67
2022/07/28 07:34:41;;;;;;;3.10;1.40;;;;;;;40.47;17.22;100398.38;106458;1267;108811;-66
2022/07/28 07:37:14;;;;;;;4.30;1.60;;;;;;;40.18;16.90;100400.63;106930;1267;138016;-67
2022/07/28 07:39:46;;;;;;;3.70;1.90;;;;;;;39.75;17.25;100395.87;107130;1267;97841;-65
2022/07/28 07:42:19;;;;;;;4.50;2.00;;;;;;;39.67;17.49;100400.52;106257;1267;137914;-67
2022/07/28 07:44:57;;;;;;;3.50;1.50;;;;;;;39.61;17.40;100402.61;107694;1267;111896;-67
2022/07/28 07:47:30;;;;;;;5.90;1.70;;;;;;;39.44;17.29;100406.86;107896;1267;108810;-66
2022/07/28 07:50:02;;;;;;;7.60;1.90;;;;;;;39.48;17.89;100403.66;107131;1267;138041;-65
2022/07/28 07:52:36;;;;;;;3.70;1.30;;;;;;;39.87;17.68;100403.35;106686;1267;97848;-66
2022/07/28 07:55:09;;;;;;;4.80;1.70;;;;;;;39.90;17.16;100396.52;107849;1267;137768;-67
2022/07/28 07:57:43;;;;;;;2.20;1.50;;;;;;;39.39;16.84;100403.84;107871;1267;112407;-66
2022/07/28 08:00:16;;;;;;;5.30;1.60;;;;;;;39.08;17.50;100403.59;107815;1267;138366;-66
2022/07/28 08:03:01;;;;;;;4.10;1.70;;;;;;;39.13;17.46;100409.27;106969;1267;110066;-67
2022/07/28 08:05:34;;;;;;;3.00;1.50;;;;;;;38.79;17.76;100408.98;107934;1267;96216;-66
2022/07/28 08:08:08;;;;;;;3.80;1.70;;;;;;;38.73;18.22;100411.39;107303;1267;137609;-67
2022/07/28 08:10:41;;;;;;;5.60;1.70;;;;;;;38.78;18.11;100411.59;107951;1266;112507;-67
2022/07/28 08:13:14;;;;;;;4.20;1.40;;;;;;;37.92;17.68;100410.98;107580;1266;138469;-65
2022/07/28 08:15:47;;;;;;;4.80;1.90;;;;;;;36.59;18.21;100414.35;106525;1268;107699;-67
2022/07/28 08:18:20;;;;;;;5.90;1.70;;;;;;;35.30;18.97;100417.25;107791;1267;138791;-66
2022/07/28 08:20:52;;;;;;;6.60;1.80;;;;;;;34.38;19.90;100419.65;107754;1267;97825;-66
2022/07/28 08:23:25;;;;;;;3.70;1.60;;;;;;;33.98;20.54;100417.09;106534;1267;111456;-66
2022/07/28 08:25:57;;;;;;;6.40;1.70;;;;;;;34.15;20.51;100420.90;107841;1268;138486;-66
2022/07/28 08:28:29;;;;;;;4.60;1.80;;;;;;;34.77;21.25;100416.44;107939;1267;108919;-66
2022/07/28 08:31:02;;;;;;;8.90;1.80;;;;;;;35.49;20.66;100416.48;107855;1267;137870;-66
2022/07/28 08:33:35;;;;;;;6.90;1.60;;;;;;;36.05;20.26;100412.30;106950;1267;97891;-66
2022/07/28 08:36:25;;;;;;;3.40;1.80;;;;;;;36.56;20.07;100410.41;106415;1267;137903;-65
2022/07/28 08:38:58;;;;;;;4.40;1.70;;;;;;;37.11;20.24;100407.56;106517;1267;108785;-67
2022/07/28 08:41:37;;;;;;;4.70;1.70;;;;;;;37.53;19.49;100412.58;106504;1267;108757;-66
2022/07/28 08:44:10;;;;;;;5.90;2.40;;;;;;;37.58;19.46;100409.44;107761;1265;137964;-69
2022/07/28 08:46:47;;;;;;;4.90;1.50;;;;;;;37.46;19.35;100405.63;107947;1267;96171;-68
2022/07/28 08:49:20;;;;;;;3.80;1.50;;;;;;;37.49;19.19;100408.57;107788;1268;137855;-68
2022/07/28 08:51:56;;;;;;;4.40;1.60;;;;;;;37.21;18.88;100416.79;106664;1268;107824;-67
2022/07/28 08:54:31;;;;;;;4.10;1.50;;;;;;;37.12;19.30;100414.11;106316;1268;138018;-67
2022/07/28 08:57:04;;;;;;;5.70;1.90;;;;;;;37.11;19.12;100416.22;106471;1269;97938;-65
2022/07/28 08:59:38;;;;;;;3.70;1.50;;;;;;;37.04;19.18;100415.48;106450;1267;97953;-68
2022/07/28 09:02:13;;;;;;;4.80;1.70;;;;;;;36.96;19.41;100414.09;106837;1267;137690;-64
2022/07/28 09:04:46;;;;;;;7.60;1.70;;;;;;;36.71;19.11;100413.86;106565;1267;107597;-65
2022/07/28 09:07:19;;;;;;;5.20;1.60;;;;;;;36.61;19.18;100417.23;107813;1267;138056;-66
2022/07/28 09:09:52;;;;;;;4.40;1.10;;;;;;;36.78;19.85;100416.98;106999;1267;97934;-65
2022/07/28 09:12:34;;;;;;;3.50;1.40;;;;;;;36.83;19.56;100415.45;107808;1268;137962;-65
2022/07/28 09:15:09;;;;;;;4.40;1.70;;;;;;;36.47;19.20;100419.00;107936;1267;112462;-66
2022/07/28 09:17:42;;;;;;;5.70;1.60;;;;;;;35.92;19.48;100418.80;107898;1268;108894;-66
2022/07/28 09:20:14;;;;;;;5.40;1.50;;;;;;;35.61;19.80;100430.77;107819;1268;137851;-67
2022/07/28 09:23:00;;;;;;;4.90;1.50;;;;;;;35.66;19.96;100429.89;107915;1267;96177;-67
2022/07/28 09:25:33;;;;;;;6.30;1.40;;;;;;;35.90;20.41;100427.02;107143;1268;137802;-66
2022/07/28 09:28:11;;;;;;;3.00;1.60;;;;;;;36.13;20.02;100422.20;107964;1268;111906;-66
2022/07/28 09:30:48;;;;;;;4.20;1.40;;;;;;;36.12;20.03;100421.92;107737;1266;138112;-66
2022/07/28 09:33:28;;;;;;;4.10;1.40;;;;;;;36.19;20.02;100424.48;106449;1268;109146;-66
2022/07/28 09:36:17;;;;;;;4.40;1.50;;;;;;;36.13;19.74;100422.41;106302;1268;138070;-64
2022/07/28 09:38:49;;;;;;;2.40;1.10;;;;;;;35.87;19.89;100419.51;106372;1270;97713;-66
2022/07/28 09:41:22;;;;;;;3.60;1.30;;;;;;;35.68;19.47;100423.84;106426;1267;112299;-66
2022/07/28 09:43:55;;;;;;;3.50;1.30;;;;;;;35.45;19.59;100425.04;106932;1267;138738;-67
2022/07/28 09:46:29;;;;;;;4.90;1.60;;;;;;;35.35;19.57;100422.66;106476;1268;107827;-67
2022/07/28 09:49:02;;;;;;;4.80;1.20;;;;;;;35.52;20.17;100421.70;106231;1268;138258;-66
2022/07/28 09:51:35;;;;;;;4.30;1.50;;;;;;;35.65;19.66;100423.16;107874;1267;96486;-67
2022/07/28 09:54:12;;;;;;;2.80;1.30;;;;;;;35.47;19.41;100425.70;107926;1268;112954;-66
2022/07/28 09:56:46;;;;;;;6.90;1.30;;;;;;;35.06;19.48;100430.86;107911;1267;108847;-65
2022/07/28 09:59:19;;;;;;;3.40;1.30;;;;;;;34.58;20.00;100431.23;107886;1267;108816;-65
2022/07/28 10:01:56;;;;;;;11.30;1.60;;;;;;;34.57;20.71;100431.22;106435;1271;138019;-65
2022/07/28 10:04:36;;;;;;;1.70;0.90;;;;;;;34.63;20.04;100429.75;107884;1268;95982;-66
2022/07/28 10:07:10;;;;;;;2.70;1.10;;;;;;;34.19;20.44;100420.52;107750;1267;137732;-66
2022/07/28 10:09:43;;;;;;;3.00;1.40;;;;;;;33.97;20.88;100421.76;106563;1267;109288;-67
2022/07/28 10:12:18;;;;;;;3.70;1.30;;;;;;;33.93;21.08;100425.66;106277;1268;138177;-65
2022/07/28 10:14:52;;;;;;;4.40;1.10;;;;;;;34.05;21.12;100420.88;106515;1268;97877;-66
2022/07/28 10:17:30;;;;;;;3.70;1.40;;;;;;;33.99;20.60;100416.81;106430;1266;97730;-69
2022/07/28 10:20:05;;;;;;;2.80;1.00;;;;;;;33.95;21.34;100417.83;106855;1268;137729;-67
2022/07/28 10:22:40;;;;;;;4.10;1.40;;;;;;;34.10;22.13;100417.52;107819;1268;109104;-66
2022/07/28 10:25:14;;;;;;;4.30;1.30;;;;;;;34.33;21.79;100416.56;107724;1268;138547;-67
2022/07/28 10:27:49;;;;;;;2.80;1.10;;;;;;;34.39;21.24;100414.91;107919;1267;96159;-67
2022/07/28 10:30:21;;;;;;;3.20;1.20;;;;;;;34.21;21.22;100412.20;106494;1267;139318;-65
2022/07/28 10:32:57;;;;;;;5.30;1.70;;;;;;;34.02;21.30;100417.88;106487;1268;111704;-65
2022/07/28 10:35:32;;;;;;;4.20;1.20;;;;;;;34.18;21.73;100409.68;107920;1267;108984;-66
2022/07/28 10:38:33;;;;;;;5.40;1.40;;;;;;;34.24;21.00;100407.80;106333;1268;137872;-66
2022/07/28 10:41:08;;;;;;;3.00;1.30;;;;;;;33.99;20.96;100406.81;107888;1267;96287;-67
2022/07/28 10:43:42;;;;;;;5.00;2.00;;;;;;;33.69;21.19;100404.27;107567;1268;137859;-68
2022/07/28 10:46:17;;;;;;;5.60;1.40;;;;;;;33.37;21.76;100410.27;107921;1268;112534;-68
2022/07/28 10:48:50;;;;;;;5.40;1.40;;;;;;;33.44;22.45;100407.34;107240;1268;138105;-70
2022/07/28 10:51:24;;;;;;;3.40;1.20;;;;;;;33.32;21.93;100409.48;107924;1267;108409;-70
2022/07/28 10:54:08;;;;;;;4.50;1.50;;;;;;;32.56;22.38;100404.34;107921;1268;97574;-65
2022/07/28 10:56:52;;;;;;;4.50;1.50;;;;;;;32.33;22.88;100408.94;106719;1268;97828;-65
2022/07/28 10:59:48;;;;;;;5.20;1.60;;;;;;;32.30;23.43;100410.34;107887;1268;113533;-66
2022/07/28 11:02:46;;;;;;;2.70;1.10;;;;;;;32.32;23.43;100411.95;107824;1267;137982;-66
2022/07/28 11:05:38;;;;;;;3.00;1.00;;;;;;;32.04;23.42;100407.41;107866;1267;107766;-67
2022/07/28 11:08:26;;;;;;;3.50;1.30;;;;;;;31.84;23.58;100412.70;107770;1267;139323;-66
2022/07/28 11:10:58;;;;;;;3.80;1.20;;;;;;;31.77;23.95;100411.35;107793;1270;97244;-67
2022/07/28 11:13:42;;;;;;;3.00;1.60;;;;;;;31.68;23.67;100407.70;106511;1268;137852;-65
2022/07/28 11:16:23;;;;;;;3.60;1.30;;;;;;;31.56;23.98;100406.31;106478;1268;107736;-66
2022/07/28 11:19:11;;;;;;;6.10;1.40;;;;;;;31.41;23.95;100408.42;106377;1268;138381;-65
2022/07/28 11:22:28;;;;;;;5.30;1.30;;;;;;;31.27;24.05;100414.96;106390;1268;98417;-65
2022/07/28 11:25:17;;;;;;;3.00;1.00;;;;;;;31.09;24.00;100410.14;107525;1268;138451;-66
2022/07/28 11:28:04;;;;;;;4.80;1.30;;;;;;;30.96;24.52;100407.25;106419;1268;112508;-66
2022/07/28 11:30:54;;;;;;;4.00;1.50;;;;;;;30.88;24.41;100409.55;106724;1268;138038;-66
2022/07/28 11:33:56;;;;;;;2.00;1.00;;;;;;;30.67;24.53;100406.45;107842;1268;109032;-66
2022/07/28 11:37:01;;;;;;;6.00;1.30;;;;;;;30.56;24.93;100403.89;106870;1268;138934;-66
2022/07/28 11:39:34;;;;;;;3.10;1.10;;;;;;;30.52;25.02;100403.84;107816;1267;96298;-66
2022/07/28 11:42:28;;;;;;;4.20;1.50;;;;;;;30.33;24.92;100402.79;107678;1267;138582;-66
2022/07/28 11:45:25;;;;;;;4.70;1.70;;;;;;;30.06;25.27;100397.21;106612;1267;107753;-65
2022/07/28 11:48:21;;;;;;;3.50;1.40;;;;;;;29.67;25.20;100397.70;107001;1267;107660;-65
2022/07/28 11:51:11;;;;;;;2.90;1.10;;;;;;;29.37;25.48;100402.59;107831;1267;96760;-65